Time;durP1;ratioP1;P1;durP2;ratioP2;P2;SDS_P1;SDS_P2;PMS_P1;PMS_P2;Temp;Humidity;BMP_temperature;BMP_pressure;BME280_temperature;BME280_humidity;BME280_pressure;Samples;Min_cycle;Max_cycle;Signal;HPM_P1;HPM_P2
2022/03/18 00:00:38;;;;;;;15.95;6.40;;;;;;;-3.85;100.00;100919.50;5130519;28;20104;-68
2022/03/18 00:03:05;;;;;;;12.18;5.32;;;;;;;-3.89;100.00;100919.13;5130056;28;20047;-68
2022/03/18 00:05:32;;;;;;;13.70;5.75;;;;;;;-3.92;100.00;100918.78;5130359;28;20051;-68
2022/03/18 00:07:58;;;;;;;13.88;6.22;;;;;;;-4.00;100.00;100922.56;5130199;28;20043;-68
2022/03/18 00:10:25;;;;;;;19.95;8.73;;;;;;;-3.98;100.00;100917.00;5130447;28;20046;-67
2022/03/18 00:12:52;;;;;;;16.38;7.15;;;;;;;-4.05;100.00;100925.13;5129925;28;20058;-67
2022/03/18 00:15:19;;;;;;;23.48;6.95;;;;;;;-4.06;100.00;100918.94;5130291;28;20142;-68
2022/03/18 00:17:46;;;;;;;16.58;7.35;;;;;;;-4.08;100.00;100920.22;5131705;27;20062;-68
2022/03/18 00:20:13;;;;;;;13.70;7.05;;;;;;;-4.13;100.00;100920.03;5133705;28;20049;-68
2022/03/18 00:22:40;;;;;;;19.88;7.53;;;;;;;-4.13;100.00;100922.72;5133506;28;20051;-68
2022/03/18 00:25:08;;;;;;;20.10;8.57;;;;;;;-4.16;100.00;100932.06;5133488;28;20047;-67
2022/03/18 00:27:35;;;;;;;14.20;6.85;;;;;;;-4.18;100.00;100918.06;5133510;28;20146;-67
2022/03/18 00:30:01;;;;;;;17.45;8.10;;;;;;;-4.18;100.00;100922.59;5133376;28;20512;-68
2022/03/18 00:32:28;;;;;;;13.30;6.25;;;;;;;-4.25;100.00;100920.00;5133400;28;20051;-67
2022/03/18 00:34:55;;;;;;;10.32;5.72;;;;;;;-4.23;100.00;100925.13;5133443;28;20054;-67
2022/03/18 00:37:21;;;;;;;12.13;5.80;;;;;;;-4.20;100.00;100922.81;5133302;28;20059;-67
2022/03/18 00:39:47;;;;;;;12.85;6.13;;;;;;;-4.21;100.00;100928.41;5133124;28;20047;-67
2022/03/18 00:42:13;;;;;;;13.45;6.25;;;;;;;-4.17;100.00;100924.22;5133660;28;20051;-68
2022/03/18 00:44:41;;;;;;;12.63;6.22;;;;;;;-4.22;100.00;100926.78;5133135;28;20104;-68
2022/03/18 00:52:02;;;;;;;14.13;6.53;;;;;;;-4.29;100.00;100927.66;5133404;28;20097;-68
2022/03/18 00:52:40;;;;;;;10.27;5.72;;;;;;;-4.44;100.00;100926.38;5132998;28;20549;-67
2022/03/18 00:55:07;;;;;;;15.45;6.15;;;;;;;-4.42;100.00;100937.69;5133574;28;20043;-67
2022/03/18 00:57:33;;;;;;;13.32;6.78;;;;;;;-4.42;100.00;100940.38;5133111;28;20047;-67
2022/03/18 00:59:59;;;;;;;12.13;5.32;;;;;;;-4.44;100.00;100939.78;5133413;28;20047;-67
2022/03/18 01:02:25;;;;;;;14.30;6.32;;;;;;;-4.45;100.00;100940.81;5132901;28;20054;-68
2022/03/18 01:04:52;;;;;;;19.65;7.03;;;;;;;-4.50;100.00;100942.31;5133175;28;20566;-68
2022/03/18 01:07:18;;;;;;;14.98;6.65;;;;;;;-4.59;100.00;100942.81;5132887;28;20050;-68
2022/03/18 01:09:45;;;;;;;15.90;5.93;;;;;;;-4.61;100.00;100950.25;5133067;28;20047;-67
2022/03/18 01:12:12;;;;;;;13.65;6.43;;;;;;;-4.61;100.00;100956.41;5132757;28;20510;-67
2022/03/18 01:14:38;;;;;;;14.80;6.15;;;;;;;-4.59;100.00;100973.06;5132894;28;20421;-67
2022/03/18 01:17:04;;;;;;;16.98;6.35;;;;;;;-4.62;100.00;100967.34;5132366;28;20137;-68
2022/03/18 01:19:31;;;;;;;14.98;6.05;;;;;;;-4.61;100.00;100971.66;5132779;28;20055;-68
2022/03/18 01:21:58;;;;;;;19.42;6.82;;;;;;;-4.73;100.00;100974.25;5132582;28;20061;-67
2022/03/18 01:24:25;;;;;;;13.35;6.53;;;;;;;-4.76;100.00;100982.72;5132481;28;20047;-68
2022/03/18 01:26:51;;;;;;;12.77;6.32;;;;;;;-4.76;100.00;100982.72;5132793;28;20061;-68
2022/03/18 01:29:17;;;;;;;12.18;6.35;;;;;;;-4.84;100.00;100986.47;5132027;27;20487;-68
2022/03/18 01:31:43;;;;;;;13.55;6.32;;;;;;;-4.88;100.00;100987.94;5132570;28;20047;-68
2022/03/18 01:34:10;;;;;;;15.15;6.35;;;;;;;-4.90;100.00;100992.69;5132476;28;20047;-67
2022/03/18 01:36:36;;;;;;;14.82;6.97;;;;;;;-4.93;100.00;100993.13;5132601;28;20184;-67
2022/03/18 01:39:03;;;;;;;16.42;6.30;;;;;;;-4.92;100.00;100996.63;5132157;28;20497;-68
2022/03/18 01:41:30;;;;;;;13.50;6.60;;;;;;;-4.98;100.00;100995.63;5132032;28;20055;-68
2022/03/18 01:43:56;;;;;;;18.27;7.07;;;;;;;-4.93;100.00;101003.84;5132282;28;20062;-67
2022/03/18 01:46:22;;;;;;;12.75;7.10;;;;;;;-4.92;100.00;101002.78;5131768;28;20055;-67
2022/03/18 01:48:49;;;;;;;13.63;6.55;;;;;;;-4.98;100.00;101004.47;5132225;28;20502;-67
2022/03/18 01:51:15;;;;;;;16.30;6.95;;;;;;;-4.99;100.00;100999.34;5132188;28;20047;-68
2022/03/18 01:53:43;;;;;;;18.35;7.30;;;;;;;-5.06;100.00;101011.97;5132407;28;20525;-68
2022/03/18 01:56:10;;;;;;;14.27;6.70;;;;;;;-5.08;100.00;101022.84;5132150;28;20047;-68
2022/03/18 01:58:37;;;;;;;22.08;8.77;;;;;;;-5.10;100.00;101032.13;5132231;28;20064;-67
2022/03/18 02:01:04;;;;;;;16.10;7.00;;;;;;;-5.10;100.00;101037.47;5131822;28;20104;-67
2022/03/18 02:03:30;;;;;;;17.45;7.47;;;;;;;-5.10;100.00;101040.16;5132259;28;20043;-68
2022/03/18 02:05:57;;;;;;;18.13;7.07;;;;;;;-5.11;100.00;101038.50;5131880;28;20054;-68
2022/03/18 02:08:24;;;;;;;19.00;6.90;;;;;;;-5.09;100.00;101036.47;5132055;28;20054;-68
2022/03/18 02:10:51;;;;;;;19.38;7.43;;;;;;;-5.16;100.00;101052.53;5131712;28;20072;-67
2022/03/18 02:13:18;;;;;;;16.02;7.05;;;;;;;-5.17;100.00;101058.91;5131648;28;20051;-68
2022/03/18 02:15:45;;;;;;;20.17;7.63;;;;;;;-5.15;100.00;101064.88;5131920;28;20054;-68
2022/03/18 02:18:11;;;;;;;14.40;7.20;;;;;;;-5.21;100.00;101057.69;5131772;28;20429;-68
2022/03/18 02:20:37;;;;;;;17.55;6.28;;;;;;;-5.27;100.00;101067.38;5131730;28;20058;-68
2022/03/18 02:23:04;;;;;;;16.45;6.97;;;;;;;-5.26;100.00;101063.69;5131550;28;20051;-67
2022/03/18 02:25:31;;;;;;;14.93;6.68;;;;;;;-5.26;100.00;101078.94;5131942;28;20048;-68
2022/03/18 02:27:59;;;;;;;19.52;7.35;;;;;;;-5.21;100.00;101087.94;5131504;28;20057;-68
2022/03/18 02:30:28;;;;;;;20.15;6.55;;;;;;;-5.27;100.00;101098.66;5131902;28;20050;-68
2022/03/18 02:32:54;;;;;;;21.50;7.47;;;;;;;-5.25;100.00;101116.13;5131428;28;20545;-67
2022/03/18 02:35:21;;;;;;;22.67;7.40;;;;;;;-5.25;100.00;101118.00;5131526;28;20536;-67
2022/03/18 02:37:47;;;;;;;14.40;6.72;;;;;;;-5.33;100.00;101107.53;5131242;28;20053;-67
2022/03/18 02:40:15;;;;;;;15.88;7.07;;;;;;;-5.39;100.00;101124.44;5130649;27;20043;-68
2022/03/18 02:42:41;;;;;;;13.93;7.38;;;;;;;-5.43;100.00;101129.38;5131324;28;20051;-68
2022/03/18 02:45:08;;;;;;;16.95;7.20;;;;;;;-5.41;100.00;101132.66;5131010;28;20115;-67
2022/03/18 02:47:35;;;;;;;20.40;6.93;;;;;;;-5.43;100.00;101129.38;5131700;28;20051;-68
2022/03/18 02:50:01;;;;;;;25.17;8.02;;;;;;;-5.44;100.00;101144.56;5131114;28;20403;-67
2022/03/18 02:52:27;;;;;;;17.63;8.13;;;;;;;-5.48;100.00;101146.03;5131485;28;20051;-67
2022/03/18 02:54:54;;;;;;;21.30;8.10;;;;;;;-5.50;100.00;101157.97;5131150;28;20184;-67
2022/03/18 02:57:21;;;;;;;22.50;8.35;;;;;;;-5.49;100.00;101165.78;5131545;28;20421;-68
2022/03/18 02:59:47;;;;;;;18.63;8.45;;;;;;;-5.54;100.00;101170.09;5131229;28;20055;-67
2022/03/18 03:02:14;;;;;;;21.95;8.68;;;;;;;-5.56;100.00;101177.53;5131477;28;20047;-68
2022/03/18 03:07:59;;;;;;;21.48;8.07;;;;;;;-5.49;100.00;101191.69;5131072;28;20441;-68
2022/03/18 03:10:11;;;;;;;;;;;;;;;-5.58;100.00;101196.44;5131411;27;20054;-67
2022/03/18 03:12:38;;;;;;;19.40;8.02;;;;;;;-5.59;100.00;101204.66;5130992;28;19960;-68
2022/03/18 03:15:06;;;;;;;20.65;7.78;;;;;;;-5.65;100.00;101214.31;5131366;28;20047;-67
2022/03/18 03:17:32;;;;;;;19.20;7.32;;;;;;;-5.58;100.00;101228.50;5130681;28;20057;-67
2022/03/18 03:19:58;;;;;;;19.00;8.02;;;;;;;-5.56;100.00;101230.97;5131015;28;20047;-67
2022/03/18 03:22:25;;;;;;;19.10;7.68;;;;;;;-5.62;100.00;101232.63;5130838;28;20051;-67
2022/03/18 03:24:51;;;;;;;20.85;8.52;;;;;;;-5.67;100.00;101243.91;5130985;28;20051;-68
2022/03/18 03:27:18;;;;;;;23.17;8.25;;;;;;;-5.77;100.00;101256.88;5130645;28;20047;-67
2022/03/18 03:29:45;;;;;;;18.48;7.50;;;;;;;-5.76;100.00;101269.22;5130772;28;20506;-67
2022/03/18 03:32:11;;;;;;;21.50;8.43;;;;;;;-5.64;100.00;101289.97;5131053;28;20051;-69
2022/03/18 03:34:37;;;;;;;20.45;7.72;;;;;;;-5.69;100.00;101295.94;5130424;28;20051;-68
2022/03/18 03:37:04;;;;;;;19.65;7.18;;;;;;;-5.65;100.00;101296.34;5130709;28;20073;-67
2022/03/18 03:39:30;;;;;;;22.77;7.95;;;;;;;-5.70;100.00;101304.97;5130569;28;20047;-67
2022/03/18 03:41:56;;;;;;;32.50;8.35;;;;;;;-5.74;100.00;101320.59;5130951;28;20047;-68
2022/03/18 03:44:23;;;;;;;18.55;7.82;;;;;;;-5.78;100.00;101338.06;5130455;28;20055;-68
2022/03/18 03:46:50;;;;;;;34.03;8.32;;;;;;;-5.82;100.00;101342.16;5130474;28;20416;-67
2022/03/18 03:49:16;;;;;;;24.65;7.63;;;;;;;-5.78;100.00;101346.06;5130382;28;20414;-67
2022/03/18 03:51:42;;;;;;;15.52;8.10;;;;;;;-5.77;100.00;101344.22;5130831;27;20054;-67
2022/03/18 03:54:08;;;;;;;20.55;7.68;;;;;;;-5.77;100.00;101330.84;5133719;28;20051;-67
2022/03/18 03:56:34;;;;;;;19.70;8.02;;;;;;;-5.79;100.00;101323.06;5134016;28;20043;-67
2022/03/18 03:59:01;;;;;;;18.10;8.32;;;;;;;-5.80;100.00;101324.06;5133940;28;20514;-68
2022/03/18 04:01:27;;;;;;;15.70;7.15;;;;;;;-5.78;100.00;101323.88;5133860;28;20420;-67
2022/03/18 04:03:54;;;;;;;20.67;7.75;;;;;;;-5.78;100.00;101316.69;5134090;28;20134;-67
2022/03/18 04:06:20;;;;;;;16.55;7.80;;;;;;;-5.76;100.00;101317.31;5133692;28;20051;-67
2022/03/18 04:08:47;;;;;;;18.75;7.75;;;;;;;-5.74;100.00;101315.22;5133872;28;20062;-67
2022/03/18 04:11:13;;;;;;;15.82;7.70;;;;;;;-5.82;100.00;101299.41;5133689;28;20100;-67
2022/03/18 04:13:40;;;;;;;19.17;7.95;;;;;;;-5.86;100.00;101311.53;5134166;28;20047;-67
2022/03/18 04:16:06;;;;;;;18.55;8.05;;;;;;;-5.87;100.00;101330.44;5133698;28;20115;-68
2022/03/18 04:18:32;;;;;;;24.73;8.88;;;;;;;-5.96;100.00;101327.19;5134155;28;20053;-67
2022/03/18 04:20:59;;;;;;;18.10;8.32;;;;;;;-5.93;100.00;101338.28;5133897;28;20043;-67
2022/03/18 04:23:25;;;;;;;19.30;8.07;;;;;;;-5.91;100.00;101362.88;5134019;28;20054;-67
2022/03/18 04:25:51;;;;;;;19.67;8.77;;;;;;;-5.85;100.00;101384.50;5133863;28;20159;-67
2022/03/18 04:28:18;;;;;;;21.52;7.75;;;;;;;-5.91;100.00;101386.09;5133714;28;20502;-67
2022/03/18 04:30:45;;;;;;;20.77;7.97;;;;;;;-5.92;100.00;101398.66;5133467;28;20047;-67
2022/03/18 04:33:11;;;;;;;20.00;8.18;;;;;;;-5.82;100.00;101411.63;5133268;28;20494;-68
2022/03/18 04:35:37;;;;;;;27.25;9.70;;;;;;;-5.86;100.00;101413.06;5133527;28;20047;-67
2022/03/18 04:38:04;;;;;;;21.33;8.50;;;;;;;-5.79;100.00;101411.22;5133251;28;20051;-68
2022/03/18 04:40:32;;;;;;;19.08;7.88;;;;;;;-5.81;100.00;101404.41;5133474;28;20047;-68
2022/03/18 04:42:58;;;;;;;17.27;7.65;;;;;;;-5.83;100.00;101399.28;5133339;28;20426;-67
2022/03/18 04:45:24;;;;;;;21.20;8.85;;;;;;;-5.76;100.00;101404.66;5132949;28;20133;-68
2022/03/18 04:47:51;;;;;;;22.98;8.82;;;;;;;-5.58;100.00;101412.06;5133239;28;20102;-68
2022/03/18 04:50:17;;;;;;;16.67;7.85;;;;;;;-5.48;100.00;101393.78;5133226;28;20050;-68
2022/03/18 04:52:43;;;;;;;23.88;8.95;;;;;;;-5.28;100.00;101375.09;5132833;28;20057;-67
2022/03/18 04:55:11;;;;;;;29.20;9.20;;;;;;;-5.24;100.00;101354.91;5132914;28;20503;-68
2022/03/18 04:57:37;;;;;;;23.45;9.50;;;;;;;-5.11;100.00;101338.03;5132992;28;20055;-62
2022/03/18 05:00:05;;;;;;;23.92;9.43;;;;;;;-5.10;100.00;101326.31;5132287;28;20097;-71
2022/03/18 05:02:31;;;;;;;26.20;9.23;;;;;;;-4.54;100.00;101325.75;5131906;27;20067;-71
2022/03/18 05:04:57;;;;;;;19.05;8.55;;;;;;;-3.08;100.00;101306.78;5132438;28;20074;-70
2022/03/18 05:07:25;;;;;;;16.20;7.95;;;;;;;-2.06;100.00;101169.13;5132730;28;20479;-69
2022/03/18 05:09:51;;;;;;;25.23;8.35;;;;;;;-1.24;100.00;101068.66;5132237;28;20585;-69
2022/03/18 05:12:18;;;;;;;29.00;11.30;;;;;;;-0.37;100.00;101057.53;5132460;28;20054;-68
2022/03/18 05:14:44;;;;;;;21.30;9.15;;;;;;;0.37;100.00;101124.69;5138609;27;20046;-70
2022/03/18 05:17:12;;;;;;;26.90;9.20;;;;;;;0.88;100.00;101209.03;5139053;27;20055;-69
2022/03/18 05:19:40;;;;;;;18.65;8.23;;;;;;;1.35;100.00;101278.78;5153222;27;20502;-72
2022/03/18 05:22:07;;;;;;;25.27;8.48;;;;;;;1.87;100.00;101348.63;5152741;27;20383;-72
2022/03/18 05:24:33;;;;;;;18.92;9.10;;;;;;;2.29;100.00;101380.44;5147856;27;20509;-72
2022/03/18 05:27:00;;;;;;;20.48;9.27;;;;;;;2.76;100.00;101422.31;5137312;27;20051;-75
2022/03/18 05:29:27;;;;;;;22.80;9.48;;;;;;;3.05;100.00;101452.63;5140723;27;20051;-74
2022/03/18 05:31:53;;;;;;;23.35;10.20;;;;;;;3.54;100.00;101474.16;5132020;28;20107;-73
2022/03/18 05:34:20;;;;;;;17.45;8.38;;;;;;;3.92;100.00;101519.13;5131621;28;20047;-69
2022/03/18 05:36:46;;;;;;;20.38;9.20;;;;;;;4.34;100.00;101531.03;5145119;27;20099;-70
2022/03/18 05:39:13;;;;;;;22.73;8.82;;;;;;;4.64;100.00;101554.78;5152074;27;20050;-65
2022/03/18 05:41:39;;;;;;;24.63;10.07;;;;;;;4.99;95.37;101569.53;5152427;27;20051;-67
2022/03/18 05:44:05;;;;;;;26.38;10.07;;;;;;;5.41;92.10;101577.50;5153012;27;20429;-69
2022/03/18 05:46:33;;;;;;;25.52;10.40;;;;;;;5.84;92.19;101581.56;5146554;27;20053;-68
2022/03/18 05:48:59;;;;;;;32.80;14.05;;;;;;;6.07;86.73;101593.81;5152705;27;20421;-67
2022/03/18 05:51:27;;;;;;;35.13;14.48;;;;;;;6.26;84.21;101604.94;5152618;27;20141;-69
2022/03/18 05:53:53;;;;;;;52.58;20.52;;;;;;;6.37;82.84;101605.75;5152573;27;20051;-77
2022/03/18 05:59:06;;;;;;;38.22;15.15;;;;;;;6.79;81.95;101612.66;5146595;27;20045;-71
2022/03/18 06:01:37;;;;;;;65.50;24.70;;;;;;;7.13;82.44;101610.03;5138480;27;20050;-67
2022/03/18 06:04:04;;;;;;;55.22;20.73;;;;;;;7.44;78.07;101618.03;5142493;27;20513;-65
2022/03/18 06:06:30;;;;;;;149.57;49.85;;;;;;;7.54;80.47;101617.94;5136388;27;20089;-72
2022/03/18 06:11:51;;;;;;;132.43;44.72;;;;;;;8.02;77.71;101627.09;5152650;27;20070;-66
2022/03/18 06:14:18;;;;;;;117.57;39.53;;;;;;;8.07;76.56;101637.16;5151945;27;20081;-63
2022/03/18 06:16:45;;;;;;;136.70;47.10;;;;;;;8.24;77.84;101644.94;5145323;27;20047;-61
2022/03/18 06:19:11;;;;;;;123.78;45.75;;;;;;;8.27;73.12;101646.28;5152322;27;20055;-63
2022/03/18 06:21:38;;;;;;;95.53;36.53;;;;;;;8.55;72.96;101650.91;5149469;27;20106;-62
2022/03/18 06:24:05;;;;;;;81.90;31.23;;;;;;;8.62;72.69;101648.63;5141026;27;20112;-66
2022/03/18 06:26:33;;;;;;;90.22;30.35;;;;;;;8.63;71.04;101657.66;5139069;27;20095;-64
2022/03/18 06:28:59;;;;;;;55.17;24.27;;;;;;;8.72;70.20;101669.59;5131510;28;20043;-65
2022/03/18 06:31:25;;;;;;;74.55;31.42;;;;;;;9.17;69.39;101668.22;5131401;28;20043;-65
2022/03/18 06:33:52;;;;;;;54.60;24.00;;;;;;;9.28;67.57;101662.59;5131621;27;20051;-66
2022/03/18 06:36:18;;;;;;;46.72;21.25;;;;;;;9.56;67.56;101664.38;5151248;27;20058;-56
2022/03/18 06:38:45;;;;;;;48.30;22.30;;;;;;;9.62;66.73;101671.41;5142954;27;20464;-68
2022/03/18 06:41:11;;;;;;;52.05;21.70;;;;;;;9.49;66.15;101671.31;5131111;28;20108;-67
2022/03/18 06:43:37;;;;;;;54.35;24.17;;;;;;;9.82;66.24;101674.94;5131288;28;20066;-68
2022/03/18 06:46:03;;;;;;;49.38;21.80;;;;;;;9.97;65.54;101673.88;5130836;27;20432;-69
2022/03/18 06:48:30;;;;;;;44.97;21.00;;;;;;;10.32;65.35;101673.28;5138446;27;20043;-66
2022/03/18 06:50:59;;;;;;;44.80;19.50;;;;;;;10.54;63.56;101686.31;5139113;27;20046;-70
2022/03/18 06:53:25;;;;;;;43.08;19.35;;;;;;;10.41;63.77;101678.09;5151640;27;20051;-68
2022/03/18 06:55:51;;;;;;;43.97;18.85;;;;;;;10.64;63.54;101684.50;5148782;27;20055;-69
2022/03/18 06:58:18;;;;;;;43.00;19.92;;;;;;;10.68;63.54;101677.28;5151784;27;20457;-63
2022/03/18 07:00:44;;;;;;;48.25;19.30;;;;;;;10.63;63.19;101678.22;5151428;27;20046;-66
2022/03/18 07:03:10;;;;;;;51.20;20.70;;;;;;;10.47;62.77;101683.16;5151383;27;20061;-51
2022/03/18 07:05:37;;;;;;;62.58;22.25;;;;;;;10.39;63.01;101681.09;5143571;27;20054;-69
2022/03/18 07:08:04;;;;;;;58.10;24.35;;;;;;;10.56;62.77;101683.25;5151361;27;20050;-66
2022/03/18 07:10:30;;;;;;;55.38;24.80;;;;;;;10.85;62.63;101691.22;5151888;27;20050;-67
2022/03/18 07:12:57;;;;;;;54.95;24.58;;;;;;;10.73;61.80;101689.00;5151555;27;20051;-69
2022/03/18 07:15:23;;;;;;;54.30;24.10;;;;;;;11.03;62.11;101689.50;5147625;27;20047;-68
2022/03/18 07:17:55;;;;;;;62.40;25.10;;;;;;;11.29;60.84;101687.00;5153817;27;20058;-70
2022/03/18 07:20:22;;;;;;;67.95;26.67;;;;;;;11.11;61.57;101690.69;5138669;27;20047;-67
2022/03/18 07:22:59;;;;;;;72.03;25.85;;;;;;;11.43;61.06;101689.72;5130585;28;20051;-70
2022/03/18 07:25:26;;;;;;;71.40;27.17;;;;;;;11.52;61.03;101693.34;5130591;27;20841;-69
2022/03/18 07:27:53;;;;;;;65.63;25.75;;;;;;;11.43;59.75;101696.03;5130585;28;20150;-67
2022/03/18 07:30:19;;;;;;;75.10;27.48;;;;;;;11.49;59.79;101688.47;5131960;27;20043;-70
2022/03/18 07:32:45;;;;;;;78.38;28.02;;;;;;;11.66;59.72;101699.66;5151200;27;20049;-68
2022/03/18 07:35:14;;;;;;;76.53;30.65;;;;;;;12.03;59.44;101692.19;5150849;27;20062;-73
2022/03/18 07:37:40;;;;;;;83.70;30.10;;;;;;;12.14;59.61;101701.81;5149387;27;20439;-70
2022/03/18 07:40:08;;;;;;;59.50;25.65;;;;;;;12.15;58.40;101700.66;5140167;27;20058;-67
2022/03/18 07:42:41;;;;;;;58.53;26.23;;;;;;;11.86;58.88;101703.88;5151488;27;20836;-64
2022/03/18 07:45:09;;;;;;;60.22;24.83;;;;;;;12.09;58.84;101696.41;5151070;27;20046;-65
2022/03/18 07:47:35;;;;;;;59.88;24.02;;;;;;;12.21;57.81;101698.59;5150877;27;20046;-68
2022/03/18 07:50:01;;;;;;;53.30;20.70;;;;;;;12.39;58.35;101705.00;5151188;27;20429;-71
2022/03/18 07:52:27;;;;;;;53.22;21.70;;;;;;;12.41;57.05;101700.84;5141898;27;20156;-69
2022/03/18 07:54:54;;;;;;;46.97;20.48;;;;;;;11.97;57.77;101698.94;5130119;27;20503;-67
2022/03/18 07:57:20;;;;;;;48.42;21.05;;;;;;;12.16;57.82;101698.72;5134888;27;20571;-71
2022/03/18 07:59:47;;;;;;;55.22;19.05;;;;;;;12.55;58.10;101699.94;5136512;27;20047;-71
2022/03/18 08:02:13;;;;;;;36.65;17.58;;;;;;;12.64;56.89;101703.53;5136351;27;20570;-70
2022/03/18 08:04:39;;;;;;;38.55;17.52;;;;;;;12.45;56.23;101701.81;5142695;27;20075;-71
2022/03/18 08:07:05;;;;;;;42.17;16.40;;;;;;;12.24;56.39;101697.97;5131056;27;20051;-71
2022/03/18 08:09:32;;;;;;;38.53;16.45;;;;;;;12.53;56.90;101693.91;5130008;28;20109;-72
2022/03/18 08:11:58;;;;;;;39.08;16.33;;;;;;;12.63;56.28;101697.22;5133757;27;20100;-68
2022/03/18 08:14:25;;;;;;;40.65;17.25;;;;;;;12.67;56.31;101700.16;5150640;27;20548;-71
2022/03/18 08:16:52;;;;;;;29.95;14.30;;;;;;;12.80;55.73;101698.44;5150945;27;20046;-70
2022/03/18 08:19:18;;;;;;;32.38;14.25;;;;;;;12.72;55.87;101705.50;5150750;27;20055;-68
2022/03/18 08:21:45;;;;;;;28.55;13.63;;;;;;;12.69;54.76;101701.47;5148631;27;20055;-69
2022/03/18 08:24:11;;;;;;;37.72;14.55;;;;;;;12.55;56.04;101705.44;5129952;28;20062;-68
2022/03/18 08:26:38;;;;;;;28.92;13.98;;;;;;;12.71;56.50;101693.69;5129812;28;20104;-70
2022/03/18 08:29:04;;;;;;;29.52;14.15;;;;;;;12.83;54.81;101698.59;5129725;28;20422;-68
2022/03/18 08:31:30;;;;;;;22.25;13.38;;;;;;;12.59;55.12;101704.47;5130030;28;20059;-70
2022/03/18 08:33:57;;;;;;;27.60;13.23;;;;;;;12.36;55.86;101708.41;5130261;27;20055;-71
2022/03/18 08:36:24;;;;;;;25.10;12.00;;;;;;;12.16;54.85;101713.31;5129485;28;20058;-73
2022/03/18 08:38:50;;;;;;;23.35;12.30;;;;;;;11.87;54.73;101710.19;5131248;27;20528;-73
2022/03/18 08:41:16;;;;;;;21.83;11.65;;;;;;;11.70;54.89;101725.38;5133230;28;20047;-72
2022/03/18 08:43:42;;;;;;;25.27;9.27;;;;;;;10.89;54.34;101724.34;5150686;27;20055;-71
2022/03/18 08:46:09;;;;;;;9.98;7.22;;;;;;;11.24;53.63;101718.13;5152679;27;20520;-70
2022/03/18 08:48:35;;;;;;;12.80;6.63;;;;;;;11.13;53.31;101716.72;5150755;27;20047;-64
2022/03/18 08:51:02;;;;;;;12.43;8.27;;;;;;;11.62;53.31;101712.34;5140988;27;20055;-70
2022/03/18 08:53:28;;;;;;;15.00;8.65;;;;;;;11.91;53.39;101712.00;5144161;27;20046;-68
2022/03/18 08:55:56;;;;;;;13.23;7.50;;;;;;;11.97;54.46;101713.50;5154241;27;20138;-69
2022/03/18 08:58:22;;;;;;;20.10;9.57;;;;;;;12.19;58.31;101698.91;5153589;27;20518;-67
2022/03/18 09:00:48;;;;;;;14.90;8.10;;;;;;;12.46;53.37;101711.72;5147861;27;20055;-64
2022/03/18 09:03:15;;;;;;;19.48;8.25;;;;;;;12.87;53.84;101705.09;5132928;28;20051;-63
2022/03/18 09:05:41;;;;;;;13.73;8.45;;;;;;;12.80;51.90;101703.94;5132876;28;20134;-70
2022/03/18 09:08:08;;;;;;;18.92;8.38;;;;;;;12.63;51.51;101711.00;5150553;27;20145;-64
2022/03/18 09:10:35;;;;;;;11.43;7.72;;;;;;;12.04;52.15;101710.31;5153447;27;20142;-61
2022/03/18 09:13:01;;;;;;;13.63;8.00;;;;;;;11.47;52.34;101709.97;5153341;27;20059;-65
2022/03/18 09:15:29;;;;;;;17.52;8.23;;;;;;;11.20;52.04;101703.41;5153292;27;20083;-63
2022/03/18 09:17:56;;;;;;;14.60;7.75;;;;;;;11.25;53.13;101702.47;5136871;27;20099;-64
2022/03/18 09:20:22;;;;;;;14.85;7.93;;;;;;;11.13;52.50;101719.47;5132149;28;20057;-65
2022/03/18 09:22:48;;;;;;;16.42;7.47;;;;;;;10.84;52.09;101717.03;5132336;28;20055;-65
2022/03/18 09:25:15;;;;;;;13.68;7.38;;;;;;;10.52;52.73;101720.66;5132270;28;20050;-64
2022/03/18 09:27:41;;;;;;;10.32;6.97;;;;;;;10.63;52.63;101710.28;5145932;27;20111;-65
2022/03/18 09:30:09;;;;;;;12.88;7.75;;;;;;;10.65;52.98;101710.81;5152818;27;20047;-64
2022/03/18 09:32:36;;;;;;;14.30;7.90;;;;;;;10.42;53.61;101710.66;5152893;27;20054;-62
2022/03/18 09:35:03;;;;;;;15.65;8.00;;;;;;;10.58;52.81;101723.00;5152979;27;20047;-66
2022/03/18 09:37:30;;;;;;;18.70;7.68;;;;;;;10.28;55.11;101721.63;5140414;27;20051;-67
2022/03/18 09:39:56;;;;;;;16.88;7.55;;;;;;;9.90;54.33;101710.69;5132037;28;20047;-65
2022/03/18 09:42:23;;;;;;;14.18;7.63;;;;;;;9.82;55.88;101710.53;5132039;28;20072;-66
2022/03/18 09:44:49;;;;;;;14.35;6.95;;;;;;;9.82;54.38;101705.88;5134323;27;20051;-64
2022/03/18 09:47:16;;;;;;;17.83;8.30;;;;;;;9.96;54.49;101708.66;5138310;27;20054;-64
2022/03/18 09:49:44;;;;;;;19.77;7.57;;;;;;;10.13;55.29;101703.47;5131902;27;20051;-65
2022/03/18 09:52:11;;;;;;;12.85;7.90;;;;;;;10.29;54.61;101706.78;5131614;28;20047;-65
2022/03/18 09:54:37;;;;;;;26.77;8.85;;;;;;;10.15;55.54;101705.91;5132068;27;20051;-65
2022/03/18 09:57:04;;;;;;;18.50;8.45;;;;;;;10.02;55.59;101695.72;5140831;27;20051;-65
2022/03/18 09:59:31;;;;;;;14.50;7.20;;;;;;;10.26;56.50;101695.59;5138334;27;20050;-65
2022/03/18 10:02:20;;;;;;;17.55;8.10;;;;;;;9.79;54.08;101705.66;5131424;28;20460;-64
2022/03/18 10:04:52;;;;;;;19.73;7.40;;;;;;;9.45;53.35;101706.72;5131571;28;20047;-65
2022/03/18 10:07:18;;;;;;;14.57;7.88;;;;;;;9.24;54.97;101706.16;5141358;27;20050;-64
2022/03/18 10:09:44;;;;;;;12.82;6.57;;;;;;;9.32;56.18;101704.69;5152038;27;20065;-65
2022/03/18 10:12:28;;;;;;;22.13;8.65;;;;;;;9.29;55.33;101702.53;5145240;27;20576;-67
2022/03/18 10:15:04;;;;;;;23.07;8.13;;;;;;;9.05;55.44;101705.31;5133715;27;20066;-65
2022/03/18 10:17:38;;;;;;;16.08;7.75;;;;;;;9.10;55.16;101692.41;5142971;27;20292;-65
2022/03/18 10:20:05;;;;;;;13.27;7.22;;;;;;;9.12;56.96;101692.09;5137287;27;20058;-65
2022/03/18 10:22:31;;;;;;;14.93;7.95;;;;;;;9.28;55.69;101687.25;5131639;28;20055;-65
2022/03/18 10:24:57;;;;;;;18.38;7.50;;;;;;;9.51;57.31;101683.63;5138993;27;20482;-65
2022/03/18 10:27:25;;;;;;;15.88;7.90;;;;;;;9.64;57.31;101680.13;5140147;27;20429;-63
2022/03/18 10:29:53;;;;;;;13.90;7.47;;;;;;;9.81;57.28;101682.34;5147484;27;20069;-64
2022/03/18 10:32:22;;;;;;;15.45;7.72;;;;;;;9.63;55.88;101674.97;5133607;27;20142;-65
2022/03/18 10:37:42;;;;;;;17.42;7.50;;;;;;;9.59;55.55;101676.66;5131644;28;20086;-63
2022/03/18 10:40:08;;;;;;;;;;;;;;;9.79;55.28;101683.75;5131834;28;20047;-64
2022/03/18 10:42:34;;;;;;;20.00;7.35;;;;;;;9.74;55.02;101684.66;5132216;27;19971;-63
2022/03/18 10:45:03;;;;;;;11.02;7.45;;;;;;;9.84;55.51;101679.00;5130755;27;20154;-64
2022/03/18 10:47:33;;;;;;;12.80;7.22;;;;;;;9.62;55.54;101679.59;5132024;27;20174;-64
2022/03/18 10:50:16;;;;;;;16.77;8.25;;;;;;;10.02;55.74;101680.06;5143731;27;20078;-64
2022/03/18 10:53:01;;;;;;;12.65;7.82;;;;;;;9.97;55.20;101679.38;5130050;27;20054;-66
2022/03/18 10:55:29;;;;;;;17.02;8.38;;;;;;;10.12;58.65;101682.63;5143469;27;20051;-65
2022/03/18 10:57:59;;;;;;;12.77;8.80;;;;;;;10.01;55.09;101678.47;5135804;27;20047;-65
2022/03/18 11:00:27;;;;;;;21.58;8.45;;;;;;;9.85;53.24;101680.63;5130703;27;20491;-65
2022/03/18 11:02:58;;;;;;;17.80;8.95;;;;;;;9.75;54.43;101675.31;5140739;27;20050;-65
2022/03/18 11:05:25;;;;;;;15.00;8.00;;;;;;;9.77;54.95;101675.03;5132353;27;20047;-64
2022/03/18 11:07:54;;;;;;;17.83;8.40;;;;;;;9.86;54.09;101676.78;5130743;27;20422;-64
2022/03/18 11:13:07;;;;;;;13.75;8.88;;;;;;;9.81;56.73;101673.31;5136724;27;20046;-67
2022/03/18 11:15:36;;;;;;;15.50;8.50;;;;;;;9.72;55.45;101673.16;5140981;27;20046;-66
2022/03/18 11:18:03;;;;;;;15.15;8.30;;;;;;;9.71;56.24;101662.53;5139126;27;20050;-65
2022/03/18 11:20:32;;;;;;;19.17;7.88;;;;;;;9.60;55.14;101664.59;5131899;27;20043;-66
2022/03/18 11:22:58;;;;;;;13.05;7.85;;;;;;;9.09;54.71;101657.91;5144059;27;20058;-64
2022/03/18 11:25:26;;;;;;;17.55;8.13;;;;;;;8.83;55.53;101656.59;5139140;27;20502;-66
2022/03/18 11:27:54;;;;;;;15.35;7.82;;;;;;;8.32;54.87;101655.22;5144070;27;20096;-65
2022/03/18 11:30:23;;;;;;;13.63;6.95;;;;;;;8.09;56.05;101650.53;5142724;27;20055;-64